sensor_id;sensor_type;location;lat;lon;timestamp;pressure;altitude;pressure_sealevel;temperature;humidity
75692;BME280;64307;52.508;6.090;2023-03-14T00:01:46;98813.69;;;11.53;82.14
75692;BME280;64307;52.508;6.090;2023-03-14T00:04:11;98825.59;;;11.45;83.99
75692;BME280;64307;52.508;6.090;2023-03-14T00:06:36;98837.09;;;11.34;86.49
75692;BME280;64307;52.508;6.090;2023-03-14T00:09:02;98834.22;;;11.25;89.26
75692;BME280;64307;52.508;6.090;2023-03-14T00:11:27;98832.16;;;11.04;90.81
75692;BME280;64307;52.508;6.090;2023-03-14T00:13:53;98834.97;;;10.92;92.43
75692;BME280;64307;52.508;6.090;2023-03-14T00:16:19;98839.22;;;10.84;92.28
75692;BME280;64307;52.508;6.090;2023-03-14T00:18:44;98843.00;;;10.77;93.00
75692;BME280;64307;52.508;6.090;2023-03-14T00:21:10;98837.22;;;10.71;94.63
75692;BME280;64307;52.508;6.090;2023-03-14T00:23:37;98830.31;;;10.63;95.05
75692;BME280;64307;52.508;6.090;2023-03-14T00:26:04;98822.28;;;10.65;93.43
75692;BME280;64307;52.508;6.090;2023-03-14T00:28:30;98822.41;;;10.62;93.56
75692;BME280;64307;52.508;6.090;2023-03-14T00:30:55;98819.09;;;10.54;93.57
75692;BME280;64307;52.508;6.090;2023-03-14T00:33:22;98816.06;;;10.49;92.78
75692;BME280;64307;52.508;6.090;2023-03-14T00:36:01;98813.53;;;10.54;91.16
75692;BME280;64307;52.508;6.090;2023-03-14T00:38:26;98805.38;;;10.47;91.52
75692;BME280;64307;52.508;6.090;2023-03-14T00:40:52;98810.63;;;10.45;90.71
75692;BME280;64307;52.508;6.090;2023-03-14T00:43:17;98809.41;;;10.46;89.73
75692;BME280;64307;52.508;6.090;2023-03-14T00:45:43;98809.28;;;10.37;90.34
75692;BME280;64307;52.508;6.090;2023-03-14T00:48:08;98822.88;;;10.35;90.16
75692;BME280;64307;52.508;6.090;2023-03-14T00:50:33;98825.53;;;10.39;90.85
75692;BME280;64307;52.508;6.090;2023-03-14T00:52:59;98825.88;;;10.41;90.97
75692;BME280;64307;52.508;6.090;2023-03-14T00:55:24;98831.00;;;10.42;91.63
75692;BME280;64307;52.508;6.090;2023-03-14T00:57:49;98825.09;;;10.40;91.74
75692;BME280;64307;52.508;6.090;2023-03-14T01:00:15;98826.31;;;10.39;92.28
75692;BME280;64307;52.508;6.090;2023-03-14T01:02:40;98819.53;;;10.40;91.87
75692;BME280;64307;52.508;6.090;2023-03-14T01:05:06;98815.19;;;10.39;92.26
75692;BME280;64307;52.508;6.090;2023-03-14T01:07:32;98821.31;;;10.34;92.98
75692;BME280;64307;52.508;6.090;2023-03-14T01:09:57;98830.00;;;10.36;92.19
75692;BME280;64307;52.508;6.090;2023-03-14T01:12:23;98830.88;;;10.33;91.76
75692;BME280;64307;52.508;6.090;2023-03-14T01:14:48;98833.22;;;10.35;91.19
75692;BME280;64307;52.508;6.090;2023-03-14T01:17:13;98826.56;;;10.32;90.95
75692;BME280;64307;52.508;6.090;2023-03-14T01:19:38;98805.50;;;10.31;91.58
75692;BME280;64307;52.508;6.090;2023-03-14T01:22:04;98813.84;;;10.31;90.75
75692;BME280;64307;52.508;6.090;2023-03-14T01:24:29;98807.41;;;10.34;90.52
75692;BME280;64307;52.508;6.090;2023-03-14T01:26:54;98810.19;;;10.34;89.43
75692;BME280;64307;52.508;6.090;2023-03-14T01:29:19;98823.53;;;10.39;88.86
75692;BME280;64307;52.508;6.090;2023-03-14T01:31:45;98820.53;;;10.34;89.52
75692;BME280;64307;52.508;6.090;2023-03-14T01:34:10;98818.97;;;10.33;89.90
75692;BME280;64307;52.508;6.090;2023-03-14T01:36:35;98810.41;;;10.27;89.90
75692;BME280;64307;52.508;6.090;2023-03-14T01:39:01;98817.50;;;10.28;90.55
75692;BME280;64307;52.508;6.090;2023-03-14T01:41:26;98815.97;;;10.27;90.54
75692;BME280;64307;52.508;6.090;2023-03-14T01:43:52;98809.72;;;10.23;90.37
75692;BME280;64307;52.508;6.090;2023-03-14T01:46:22;98804.06;;;10.27;90.76
75692;BME280;64307;52.508;6.090;2023-03-14T01:56:35;98803.59;;;10.28;87.86
75692;BME280;64307;52.508;6.090;2023-03-14T01:59:02;98812.63;;;10.32;87.52
75692;BME280;64307;52.508;6.090;2023-03-14T02:01:28;98808.75;;;10.30;87.37
75692;BME280;64307;52.508;6.090;2023-03-14T02:03:54;98809.53;;;10.30;87.33
75692;BME280;64307;52.508;6.090;2023-03-14T02:06:23;98804.72;;;10.31;87.04
75692;BME280;64307;52.508;6.090;2023-03-14T02:08:50;98801.72;;;10.25;87.83
75692;BME280;64307;52.508;6.090;2023-03-14T02:11:17;98796.94;;;10.13;88.67
75692;BME280;64307;52.508;6.090;2023-03-14T02:13:43;98808.06;;;10.13;89.54
75692;BME280;64307;52.508;6.090;2023-03-14T02:16:08;98807.88;;;10.04;90.47
75692;BME280;64307;52.508;6.090;2023-03-14T02:18:34;98799.53;;;9.91;91.67
75692;BME280;64307;52.508;6.090;2023-03-14T02:21:09;98816.13;;;9.95;92.10
75692;BME280;64307;52.508;6.090;2023-03-14T02:24:04;98815.13;;;9.89;93.07
75692;BME280;64307;52.508;6.090;2023-03-14T02:26:40;98791.38;;;9.72;94.14
75692;BME280;64307;52.508;6.090;2023-03-14T02:29:08;98801.94;;;9.77;94.33
75692;BME280;64307;52.508;6.090;2023-03-14T02:31:33;98804.50;;;9.71;94.82
75692;BME280;64307;52.508;6.090;2023-03-14T02:33:59;98797.13;;;9.65;95.82
75692;BME280;64307;52.508;6.090;2023-03-14T02:36:25;98795.69;;;9.60;95.74
75692;BME280;64307;52.508;6.090;2023-03-14T02:41:35;98781.66;;;9.51;95.81
75692;BME280;64307;52.508;6.090;2023-03-14T02:44:00;98785.56;;;9.54;95.48
75692;BME280;64307;52.508;6.090;2023-03-14T02:46:25;98788.69;;;9.56;94.97
75692;BME280;64307;52.508;6.090;2023-03-14T02:49:02;98782.78;;;9.54;95.67
75692;BME280;64307;52.508;6.090;2023-03-14T02:51:28;98775.31;;;9.51;95.80
75692;BME280;64307;52.508;6.090;2023-03-14T02:53:54;98767.66;;;9.55;95.22
75692;BME280;64307;52.508;6.090;2023-03-14T02:56:19;98762.66;;;9.50;95.50
75692;BME280;64307;52.508;6.090;2023-03-14T02:58:44;98765.22;;;9.57;94.68
75692;BME280;64307;52.508;6.090;2023-03-14T03:01:09;98760.88;;;9.56;94.77
75692;BME280;64307;52.508;6.090;2023-03-14T03:03:35;98764.88;;;9.55;95.21
75692;BME280;64307;52.508;6.090;2023-03-14T03:06:00;98777.75;;;9.49;95.18
75692;BME280;64307;52.508;6.090;2023-03-14T03:08:26;98771.00;;;9.50;95.42
75692;BME280;64307;52.508;6.090;2023-03-14T03:10:52;98776.09;;;9.51;96.39
75692;BME280;64307;52.508;6.090;2023-03-14T03:13:18;98769.75;;;9.51;95.65
75692;BME280;64307;52.508;6.090;2023-03-14T03:15:44;98756.75;;;9.48;95.92
75692;BME280;64307;52.508;6.090;2023-03-14T03:18:10;98765.78;;;9.52;95.53
75692;BME280;64307;52.508;6.090;2023-03-14T03:20:36;98766.44;;;9.56;94.86
75692;BME280;64307;52.508;6.090;2023-03-14T03:23:01;98762.53;;;9.53;94.35
75692;BME280;64307;52.508;6.090;2023-03-14T03:25:27;98769.13;;;9.59;94.20
75692;BME280;64307;52.508;6.090;2023-03-14T03:27:52;98771.44;;;9.61;95.00
75692;BME280;64307;52.508;6.090;2023-03-14T03:30:18;98765.88;;;9.61;94.60
75692;BME280;64307;52.508;6.090;2023-03-14T03:32:43;98767.13;;;9.60;94.59
75692;BME280;64307;52.508;6.090;2023-03-14T03:35:09;98763.66;;;9.56;94.95
75692;BME280;64307;52.508;6.090;2023-03-14T03:37:35;98760.31;;;9.61;94.29
75692;BME280;64307;52.508;6.090;2023-03-14T03:40:01;98756.00;;;9.60;94.56
75692;BME280;64307;52.508;6.090;2023-03-14T03:42:29;98742.88;;;9.48;95.06
75692;BME280;64307;52.508;6.090;2023-03-14T03:44:55;98752.22;;;9.54;94.87
75692;BME280;64307;52.508;6.090;2023-03-14T03:47:20;98749.19;;;9.48;95.11
75692;BME280;64307;52.508;6.090;2023-03-14T03:49:45;98743.72;;;9.45;95.23
75692;BME280;64307;52.508;6.090;2023-03-14T03:52:10;98757.84;;;9.50;95.85
75692;BME280;64307;52.508;6.090;2023-03-14T03:54:36;98763.31;;;9.54;95.68
75692;BME280;64307;52.508;6.090;2023-03-14T03:57:01;98756.19;;;9.53;95.02
75692;BME280;64307;52.508;6.090;2023-03-14T03:59:26;98742.06;;;9.47;94.84
75692;BME280;64307;52.508;6.090;2023-03-14T04:01:53;98738.16;;;9.45;94.85
75692;BME280;64307;52.508;6.090;2023-03-14T04:04:19;98748.19;;;9.55;94.89
75692;BME280;64307;52.508;6.090;2023-03-14T04:06:44;98756.13;;;9.56;94.59
75692;BME280;64307;52.508;6.090;2023-03-14T04:09:10;98741.53;;;9.52;94.82
75692;BME280;64307;52.508;6.090;2023-03-14T04:11:36;98751.31;;;9.57;94.01
75692;BME280;64307;52.508;6.090;2023-03-14T04:14:02;98765.00;;;9.64;93.59
75692;BME280;64307;52.508;6.090;2023-03-14T04:16:27;98764.91;;;9.67;93.17
75692;BME280;64307;52.508;6.090;2023-03-14T04:18:53;98762.81;;;9.71;92.93
75692;BME280;64307;52.508;6.090;2023-03-14T04:21:20;98753.34;;;9.69;92.94
75692;BME280;64307;52.508;6.090;2023-03-14T04:23:45;98765.25;;;9.69;92.79
75692;BME280;64307;52.508;6.090;2023-03-14T04:26:10;98756.03;;;9.72;91.97
75692;BME280;64307;52.508;6.090;2023-03-14T04:28:36;98770.94;;;9.78;91.90
75692;BME280;64307;52.508;6.090;2023-03-14T04:31:13;98757.38;;;9.80;91.58
75692;BME280;64307;52.508;6.090;2023-03-14T04:33:39;98765.72;;;9.80;91.86
75692;BME280;64307;52.508;6.090;2023-03-14T04:36:05;98759.03;;;9.78;91.88
75692;BME280;64307;52.508;6.090;2023-03-14T04:38:31;98753.47;;;9.78;91.80
75692;BME280;64307;52.508;6.090;2023-03-14T04:40:57;98742.81;;;9.76;91.91
75692;BME280;64307;52.508;6.090;2023-03-14T04:43:22;98760.94;;;9.81;91.86
75692;BME280;64307;52.508;6.090;2023-03-14T04:45:48;98745.47;;;9.80;91.58
75692;BME280;64307;52.508;6.090;2023-03-14T04:48:13;98746.00;;;9.75;92.49
75692;BME280;64307;52.508;6.090;2023-03-14T04:50:39;98740.91;;;9.73;92.96
75692;BME280;64307;52.508;6.090;2023-03-14T04:53:05;98734.34;;;9.67;93.55
75692;BME280;64307;52.508;6.090;2023-03-14T04:55:31;98741.47;;;9.68;92.90
75692;BME280;64307;52.508;6.090;2023-03-14T04:57:57;98740.00;;;9.64;93.89
75692;BME280;64307;52.508;6.090;2023-03-14T05:00:22;98737.00;;;9.58;94.14
75692;BME280;64307;52.508;6.090;2023-03-14T05:02:47;98732.66;;;9.57;94.56
75692;BME280;64307;52.508;6.090;2023-03-14T05:05:13;98723.97;;;9.55;94.58
75692;BME280;64307;52.508;6.090;2023-03-14T05:07:39;98730.66;;;9.58;94.79
75692;BME280;64307;52.508;6.090;2023-03-14T05:10:05;98731.44;;;9.58;95.11
75692;BME280;64307;52.508;6.090;2023-03-14T05:12:30;98731.53;;;9.55;95.28
75692;BME280;64307;52.508;6.090;2023-03-14T05:14:55;98718.53;;;9.52;95.15
75692;BME280;64307;52.508;6.090;2023-03-14T05:17:21;98729.97;;;9.54;95.28
75692;BME280;64307;52.508;6.090;2023-03-14T05:19:46;98711.84;;;9.49;95.10
75692;BME280;64307;52.508;6.090;2023-03-14T05:22:12;98727.53;;;9.56;95.31
75692;BME280;64307;52.508;6.090;2023-03-14T05:24:37;98711.75;;;9.53;94.68
75692;BME280;64307;52.508;6.090;2023-03-14T05:27:04;98711.75;;;9.53;94.81
75692;BME280;64307;52.508;6.090;2023-03-14T05:29:29;98716.44;;;9.56;94.83
75692;BME280;64307;52.508;6.090;2023-03-14T05:31:54;98719.09;;;9.59;94.83
75692;BME280;64307;52.508;6.090;2023-03-14T05:34:19;98722.00;;;9.56;94.34
75692;BME280;64307;52.508;6.090;2023-03-14T05:36:45;98715.53;;;9.59;95.01
75692;BME280;64307;52.508;6.090;2023-03-14T05:39:10;98727.22;;;9.54;96.14
75692;BME280;64307;52.508;6.090;2023-03-14T05:41:35;98716.28;;;9.47;96.27
75692;BME280;64307;52.508;6.090;2023-03-14T05:44:01;98720.31;;;9.46;97.06
75692;BME280;64307;52.508;6.090;2023-03-14T05:46:26;98717.72;;;9.39;97.24
75692;BME280;64307;52.508;6.090;2023-03-14T05:48:51;98725.72;;;9.37;97.49
75692;BME280;64307;52.508;6.090;2023-03-14T05:51:18;98724.84;;;9.40;97.40
75692;BME280;64307;52.508;6.090;2023-03-14T05:53:43;98730.41;;;9.40;97.50
75692;BME280;64307;52.508;6.090;2023-03-14T05:56:09;98727.63;;;9.40;97.62
75692;BME280;64307;52.508;6.090;2023-03-14T05:58:34;98731.59;;;9.39;97.60
75692;BME280;64307;52.508;6.090;2023-03-14T06:01:03;98726.16;;;9.35;98.51
75692;BME280;64307;52.508;6.090;2023-03-14T06:03:29;98735.97;;;9.40;98.18
75692;BME280;64307;52.508;6.090;2023-03-14T06:05:54;98725.25;;;9.38;97.93
75692;BME280;64307;52.508;6.090;2023-03-14T06:08:19;98722.25;;;9.33;97.63
75692;BME280;64307;52.508;6.090;2023-03-14T06:10:45;98719.38;;;9.36;97.78
75692;BME280;64307;52.508;6.090;2023-03-14T06:13:10;98723.72;;;9.37;98.64
75692;BME280;64307;52.508;6.090;2023-03-14T06:15:35;98722.94;;;9.37;98.61
75692;BME280;64307;52.508;6.090;2023-03-14T06:18:01;98711.81;;;9.37;99.23
75692;BME280;64307;52.508;6.090;2023-03-14T06:20:26;98711.47;;;9.35;99.29
75692;BME280;64307;52.508;6.090;2023-03-14T06:22:51;98703.94;;;9.35;99.01
75692;BME280;64307;52.508;6.090;2023-03-14T06:25:17;98699.59;;;9.34;98.45
75692;BME280;64307;52.508;6.090;2023-03-14T06:27:42;98716.06;;;9.41;98.59
75692;BME280;64307;52.508;6.090;2023-03-14T06:30:08;98708.94;;;9.40;98.48
75692;BME280;64307;52.508;6.090;2023-03-14T06:32:33;98716.28;;;9.47;97.85
75692;BME280;64307;52.508;6.090;2023-03-14T06:34:59;98711.72;;;9.40;97.67
75692;BME280;64307;52.508;6.090;2023-03-14T06:37:29;98707.84;;;9.38;99.04
75692;BME280;64307;52.508;6.090;2023-03-14T06:39:55;98707.16;;;9.34;98.99
75692;BME280;64307;52.508;6.090;2023-03-14T06:42:21;98714.25;;;9.35;99.26
75692;BME280;64307;52.508;6.090;2023-03-14T06:44:46;98725.59;;;9.40;99.50
75692;BME280;64307;52.508;6.090;2023-03-14T06:47:12;98734.38;;;9.39;99.29
75692;BME280;64307;52.508;6.090;2023-03-14T06:49:37;98732.63;;;9.45;99.11
75692;BME280;64307;52.508;6.090;2023-03-14T06:52:02;98743.41;;;9.43;99.67
75692;BME280;64307;52.508;6.090;2023-03-14T06:54:28;98759.63;;;9.44;99.88
75692;BME280;64307;52.508;6.090;2023-03-14T06:56:53;98786.63;;;9.44;99.85
75692;BME280;64307;52.508;6.090;2023-03-14T06:59:18;98838.06;;;9.20;97.93
75692;BME280;64307;52.508;6.090;2023-03-14T07:01:43;98849.72;;;8.66;94.87
75692;BME280;64307;52.508;6.090;2023-03-14T07:04:09;98844.84;;;8.54;95.46
75692;BME280;64307;52.508;6.090;2023-03-14T07:06:35;98852.31;;;8.41;96.82
75692;BME280;64307;52.508;6.090;2023-03-14T07:09:00;98850.69;;;8.24;98.06
75692;BME280;64307;52.508;6.090;2023-03-14T07:11:26;98860.38;;;8.16;97.96
75692;BME280;64307;52.508;6.090;2023-03-14T07:13:51;98876.28;;;8.12;99.25
75692;BME280;64307;52.508;6.090;2023-03-14T07:16:17;98875.09;;;7.93;99.37
75692;BME280;64307;52.508;6.090;2023-03-14T07:18:42;98881.06;;;7.92;98.72
75692;BME280;64307;52.508;6.090;2023-03-14T07:21:08;98893.28;;;7.94;99.71
75692;BME280;64307;52.508;6.090;2023-03-14T07:23:34;98903.53;;;7.78;98.65
75692;BME280;64307;52.508;6.090;2023-03-14T07:25:59;98906.59;;;7.83;99.66
75692;BME280;64307;52.508;6.090;2023-03-14T07:28:25;98910.75;;;7.72;98.52
75692;BME280;64307;52.508;6.090;2023-03-14T07:30:50;98914.97;;;7.80;98.75
75692;BME280;64307;52.508;6.090;2023-03-14T07:33:16;98920.28;;;7.71;99.63
75692;BME280;64307;52.508;6.090;2023-03-14T07:35:41;98919.56;;;7.67;99.60
75692;BME280;64307;52.508;6.090;2023-03-14T07:38:06;98929.84;;;7.66;99.21
75692;BME280;64307;52.508;6.090;2023-03-14T07:40:32;98925.94;;;7.64;99.69
75692;BME280;64307;52.508;6.090;2023-03-14T07:42:57;98948.34;;;7.73;98.86
75692;BME280;64307;52.508;6.090;2023-03-14T07:45:22;98950.63;;;7.78;98.57
75692;BME280;64307;52.508;6.090;2023-03-14T07:47:47;98962.22;;;7.92;98.09
75692;BME280;64307;52.508;6.090;2023-03-14T07:50:13;98977.75;;;7.67;97.22
75692;BME280;64307;52.508;6.090;2023-03-14T07:52:38;98991.81;;;7.29;96.25
75692;BME280;64307;52.508;6.090;2023-03-14T07:55:04;99005.31;;;7.27;97.80
75692;BME280;64307;52.508;6.090;2023-03-14T07:57:29;99029.44;;;7.00;96.22
75692;BME280;64307;52.508;6.090;2023-03-14T07:59:55;99028.41;;;6.60;95.42
75692;BME280;64307;52.508;6.090;2023-03-14T08:02:20;99052.97;;;6.55;94.16
75692;BME280;64307;52.508;6.090;2023-03-14T08:04:47;99044.28;;;6.53;94.71
75692;BME280;64307;52.508;6.090;2023-03-14T08:07:13;99066.41;;;6.53;94.47
75692;BME280;64307;52.508;6.090;2023-03-14T08:09:38;99069.88;;;6.27;94.15
75692;BME280;64307;52.508;6.090;2023-03-14T08:12:03;99082.63;;;6.14;95.03
75692;BME280;64307;52.508;6.090;2023-03-14T08:14:29;99110.94;;;6.28;95.04
75692;BME280;64307;52.508;6.090;2023-03-14T08:16:55;99131.53;;;6.24;95.08
75692;BME280;64307;52.508;6.090;2023-03-14T08:19:21;99150.56;;;6.15;94.12
75692;BME280;64307;52.508;6.090;2023-03-14T08:21:46;99146.56;;;6.16;93.65
75692;BME280;64307;52.508;6.090;2023-03-14T08:24:11;99163.53;;;6.21;92.92
75692;BME280;64307;52.508;6.090;2023-03-14T08:26:37;99175.09;;;6.06;92.36
75692;BME280;64307;52.508;6.090;2023-03-14T08:29:02;99171.19;;;6.03;92.49
75692;BME280;64307;52.508;6.090;2023-03-14T08:31:29;99178.91;;;6.22;93.02
75692;BME280;64307;52.508;6.090;2023-03-14T08:33:55;99211.69;;;6.24;91.63
75692;BME280;64307;52.508;6.090;2023-03-14T08:36:22;99208.22;;;6.13;91.79
75692;BME280;64307;52.508;6.090;2023-03-14T08:38:48;99215.66;;;6.16;93.08
75692;BME280;64307;52.508;6.090;2023-03-14T08:41:13;99236.53;;;6.27;91.15
75692;BME280;64307;52.508;6.090;2023-03-14T08:43:38;99241.47;;;6.50;89.81
75692;BME280;64307;52.508;6.090;2023-03-14T08:46:04;99254.03;;;6.58;88.89
75692;BME280;64307;52.508;6.090;2023-03-14T08:48:30;99258.56;;;6.38;87.92
75692;BME280;64307;52.508;6.090;2023-03-14T08:50:56;99276.66;;;6.46;86.44
75692;BME280;64307;52.508;6.090;2023-03-14T08:53:22;99277.72;;;6.59;87.97
75692;BME280;64307;52.508;6.090;2023-03-14T08:55:52;99304.19;;;6.60;86.20
75692;BME280;64307;52.508;6.090;2023-03-14T08:58:17;99318.63;;;6.82;85.78
75692;BME280;64307;52.508;6.090;2023-03-14T09:00:43;99317.84;;;7.18;84.96
75692;BME280;64307;52.508;6.090;2023-03-14T09:03:08;99308.69;;;7.25;84.22
75692;BME280;64307;52.508;6.090;2023-03-14T09:05:33;99348.22;;;6.88;83.60
75692;BME280;64307;52.508;6.090;2023-03-14T09:07:59;99357.84;;;6.70;83.46
75692;BME280;64307;52.508;6.090;2023-03-14T09:10:24;99364.66;;;6.58;84.98
75692;BME280;64307;52.508;6.090;2023-03-14T09:12:49;99380.00;;;6.66;86.14
75692;BME280;64307;52.508;6.090;2023-03-14T09:15:15;99390.16;;;6.83;86.15
75692;BME280;64307;52.508;6.090;2023-03-14T09:17:42;99389.47;;;6.69;85.23
75692;BME280;64307;52.508;6.090;2023-03-14T09:20:09;99413.47;;;6.82;84.28
75692;BME280;64307;52.508;6.090;2023-03-14T09:22:34;99409.41;;;6.97;84.20
75692;BME280;64307;52.508;6.090;2023-03-14T09:25:01;99431.09;;;7.02;82.64
75692;BME280;64307;52.508;6.090;2023-03-14T09:27:26;99431.66;;;7.31;82.87
75692;BME280;64307;52.508;6.090;2023-03-14T09:29:51;99443.97;;;7.26;80.80
75692;BME280;64307;52.508;6.090;2023-03-14T09:32:17;99450.28;;;7.27;82.79
75692;BME280;64307;52.508;6.090;2023-03-14T09:34:42;99451.88;;;7.28;81.22
75692;BME280;64307;52.508;6.090;2023-03-14T09:37:07;99458.53;;;7.34;80.67
75692;BME280;64307;52.508;6.090;2023-03-14T09:39:33;99458.81;;;7.47;79.93
75692;BME280;64307;52.508;6.090;2023-03-14T09:42:02;99465.25;;;7.77;77.16
75692;BME280;64307;52.508;6.090;2023-03-14T09:44:35;99479.28;;;8.34;75.28
75692;BME280;64307;52.508;6.090;2023-03-14T09:47:04;99482.91;;;8.61;73.77
75692;BME280;64307;52.508;6.090;2023-03-14T09:49:36;99492.00;;;8.62;72.83
75692;BME280;64307;52.508;6.090;2023-03-14T09:52:10;99503.13;;;8.28;73.31
75692;BME280;64307;52.508;6.090;2023-03-14T09:54:45;99511.88;;;8.27;75.27
75692;BME280;64307;52.508;6.090;2023-03-14T09:57:15;99513.97;;;8.12;75.79
75692;BME280;64307;52.508;6.090;2023-03-14T09:59:43;99522.47;;;7.94;74.04
75692;BME280;64307;52.508;6.090;2023-03-14T10:02:19;99527.72;;;7.85;74.39
75692;BME280;64307;52.508;6.090;2023-03-14T10:04:46;99538.06;;;7.81;75.61
75692;BME280;64307;52.508;6.090;2023-03-14T10:07:14;99561.88;;;7.75;75.71
75692;BME280;64307;52.508;6.090;2023-03-14T10:09:43;99570.63;;;7.67;78.21
75692;BME280;64307;52.508;6.090;2023-03-14T10:12:08;99559.13;;;7.17;78.80
75692;BME280;64307;52.508;6.090;2023-03-14T10:14:36;99593.94;;;7.14;80.39
75692;BME280;64307;52.508;6.090;2023-03-14T10:17:10;99613.53;;;6.79;80.78
75692;BME280;64307;52.508;6.090;2023-03-14T10:19:37;99629.34;;;6.68;82.34
75692;BME280;64307;52.508;6.090;2023-03-14T10:22:10;99646.84;;;6.16;84.47
75692;BME280;64307;52.508;6.090;2023-03-14T10:24:46;99633.41;;;6.25;83.78
75692;BME280;64307;52.508;6.090;2023-03-14T10:27:20;99638.47;;;6.51;82.20
75692;BME280;64307;52.508;6.090;2023-03-14T10:29:57;99647.91;;;6.68;81.25
75692;BME280;64307;52.508;6.090;2023-03-14T10:32:31;99662.03;;;7.05;79.47
75692;BME280;64307;52.508;6.090;2023-03-14T10:35:07;99665.00;;;7.42;78.80
75692;BME280;64307;52.508;6.090;2023-03-14T10:37:34;99674.72;;;7.68;77.85
75692;BME280;64307;52.508;6.090;2023-03-14T10:40:00;99676.94;;;7.94;76.92
75692;BME280;64307;52.508;6.090;2023-03-14T10:42:33;99691.63;;;7.87;77.57
75692;BME280;64307;52.508;6.090;2023-03-14T10:45:02;99701.72;;;7.57;78.46
75692;BME280;64307;52.508;6.090;2023-03-14T10:47:29;99703.81;;;7.35;76.01
75692;BME280;64307;52.508;6.090;2023-03-14T10:49:57;99724.28;;;7.59;75.75
75692;BME280;64307;52.508;6.090;2023-03-14T10:52:47;99741.97;;;7.79;68.90
75692;BME280;64307;52.508;6.090;2023-03-14T10:55:13;99737.66;;;8.33;66.81
75692;BME280;64307;52.508;6.090;2023-03-14T10:57:40;99743.38;;;8.59;65.03
75692;BME280;64307;52.508;6.090;2023-03-14T11:00:11;99765.28;;;8.87;65.29
75692;BME280;64307;52.508;6.090;2023-03-14T11:05:31;99788.31;;;10.19;59.55
75692;BME280;64307;52.508;6.090;2023-03-14T11:08:20;99802.94;;;9.63;58.21
75692;BME280;64307;52.508;6.090;2023-03-14T11:10:54;99822.34;;;9.33;58.64
75692;BME280;64307;52.508;6.090;2023-03-14T11:16:44;99842.78;;;9.53;57.73
75692;BME280;64307;52.508;6.090;2023-03-14T11:20:01;99852.97;;;9.63;56.39
75692;BME280;64307;52.508;6.090;2023-03-14T11:22:27;99849.00;;;9.64;54.21
75692;BME280;64307;52.508;6.090;2023-03-14T11:25:18;99877.72;;;10.21;53.80
75692;BME280;64307;52.508;6.090;2023-03-14T11:27:59;99879.13;;;10.63;51.87
75692;BME280;64307;52.508;6.090;2023-03-14T11:30:39;99887.91;;;10.31;50.96
75692;BME280;64307;52.508;6.090;2023-03-14T11:33:16;99891.06;;;10.87;50.38
75692;BME280;64307;52.508;6.090;2023-03-14T11:41:00;99918.13;;;9.21;51.24
75692;BME280;64307;52.508;6.090;2023-03-14T11:43:28;99935.34;;;9.02;52.33
75692;BME280;64307;52.508;6.090;2023-03-14T11:45:58;99929.31;;;9.92;49.41
75692;BME280;64307;52.508;6.090;2023-03-14T11:48:37;99938.19;;;10.47;48.06
75692;BME280;64307;52.508;6.090;2023-03-14T11:51:15;99944.34;;;10.89;46.39
75692;BME280;64307;52.508;6.090;2023-03-14T11:56:55;99961.31;;;11.24;46.02
75692;BME280;64307;52.508;6.090;2023-03-14T12:00:24;99962.22;;;10.64;44.53
75692;BME280;64307;52.508;6.090;2023-03-14T12:02:35;99963.50;;;10.87;44.56
75692;BME280;64307;52.508;6.090;2023-03-14T12:05:36;99966.78;;;11.05;46.15
75692;BME280;64307;52.508;6.090;2023-03-14T12:10:45;100000.22;;;10.48;49.84
75692;BME280;64307;52.508;6.090;2023-03-14T12:13:13;99993.97;;;10.40;48.90
75692;BME280;64307;52.508;6.090;2023-03-14T12:15:40;100010.13;;;10.52;47.16
75692;BME280;64307;52.508;6.090;2023-03-14T12:18:38;100013.47;;;11.24;47.10
75692;BME280;64307;52.508;6.090;2023-03-14T12:21:06;100021.03;;;10.97;46.95
75692;BME280;64307;52.508;6.090;2023-03-14T12:23:43;100034.53;;;11.02;47.07
75692;BME280;64307;52.508;6.090;2023-03-14T12:28:43;100061.91;;;10.02;45.80
75692;BME280;64307;52.508;6.090;2023-03-14T12:41:52;100071.69;;;10.88;43.12
75692;BME280;64307;52.508;6.090;2023-03-14T12:46:59;100077.16;;;10.31;43.70
75692;BME280;64307;52.508;6.090;2023-03-14T12:49:35;100086.31;;;10.65;42.49
75692;BME280;64307;52.508;6.090;2023-03-14T12:52:10;100083.16;;;10.63;42.81
75692;BME280;64307;52.508;6.090;2023-03-14T12:57:32;100102.25;;;10.24;44.74
75692;BME280;64307;52.508;6.090;2023-03-14T13:00:00;100100.03;;;10.83;45.00
75692;BME280;64307;52.508;6.090;2023-03-14T13:02:28;100118.97;;;9.73;44.79
75692;BME280;64307;52.508;6.090;2023-03-14T13:08:01;100114.66;;;9.68;44.68
75692;BME280;64307;52.508;6.090;2023-03-14T13:10:48;100132.22;;;9.58;43.32
75692;BME280;64307;52.508;6.090;2023-03-14T13:13:22;100133.53;;;9.36;44.37
75692;BME280;64307;52.508;6.090;2023-03-14T13:15:49;100141.78;;;9.50;44.99
75692;BME280;64307;52.508;6.090;2023-03-14T13:18:27;100155.78;;;9.95;43.84
75692;BME280;64307;52.508;6.090;2023-03-14T13:20:58;100160.69;;;9.76;43.31
75692;BME280;64307;52.508;6.090;2023-03-14T13:23:29;100169.28;;;9.93;44.36
75692;BME280;64307;52.508;6.090;2023-03-14T13:25:55;100159.31;;;9.40;45.78
75692;BME280;64307;52.508;6.090;2023-03-14T13:28:20;100181.38;;;8.92;47.90
75692;BME280;64307;52.508;6.090;2023-03-14T13:30:46;100191.69;;;8.88;45.99
75692;BME280;64307;52.508;6.090;2023-03-14T13:33:18;100193.75;;;8.63;45.33
75692;BME280;64307;52.508;6.090;2023-03-14T13:35:53;100198.13;;;8.43;45.38
75692;BME280;64307;52.508;6.090;2023-03-14T13:38:22;100223.88;;;8.51;45.31
75692;BME280;64307;52.508;6.090;2023-03-14T13:40:49;100218.31;;;8.61;46.21
75692;BME280;64307;52.508;6.090;2023-03-14T13:43:27;100225.75;;;8.99;46.81
75692;BME280;64307;52.508;6.090;2023-03-14T13:45:56;100228.88;;;9.23;46.31
75692;BME280;64307;52.508;6.090;2023-03-14T13:48:25;100236.34;;;9.40;46.84
75692;BME280;64307;52.508;6.090;2023-03-14T13:50:54;100244.28;;;9.41;47.55
75692;BME280;64307;52.508;6.090;2023-03-14T13:53:21;100246.38;;;9.13;47.27
75692;BME280;64307;52.508;6.090;2023-03-14T13:55:47;100256.38;;;8.71;48.98
75692;BME280;64307;52.508;6.090;2023-03-14T13:58:27;100250.78;;;8.89;48.29
75692;BME280;64307;52.508;6.090;2023-03-14T14:01:00;100278.94;;;8.24;49.33